sensor_id;sensor_type;location;lat;lon;timestamp;pressure;altitude;pressure_sealevel;temperature;humidity
13422;BME280;6782;55.904;13.396;2024-02-26T00:00:54;100169.75;;;5.23;100.00
13422;BME280;6782;55.904;13.396;2024-02-26T00:03:42;100199.81;;;5.62;100.00
13422;BME280;6782;55.904;13.396;2024-02-26T00:06:31;100173.16;;;5.31;100.00
13422;BME280;6782;55.904;13.396;2024-02-26T00:09:19;100139.63;;;4.90;100.00
13422;BME280;6782;55.904;13.396;2024-02-26T00:12:06;100154.41;;;4.91;100.00
13422;BME280;6782;55.904;13.396;2024-02-26T00:14:55;100163.16;;;4.87;100.00
13422;BME280;6782;55.904;13.396;2024-02-26T00:17:43;100164.88;;;4.90;100.00
13422;BME280;6782;55.904;13.396;2024-02-26T00:20:31;100194.25;;;5.16;100.00
13422;BME280;6782;55.904;13.396;2024-02-26T00:23:18;100212.47;;;5.19;100.00
13422;BME280;6782;55.904;13.396;2024-02-26T00:26:05;100217.59;;;5.30;100.00
13422;BME280;6782;55.904;13.396;2024-02-26T00:28:53;100211.56;;;5.26;100.00
13422;BME280;6782;55.904;13.396;2024-02-26T00:31:42;100184.88;;;4.91;100.00
13422;BME280;6782;55.904;13.396;2024-02-26T00:34:29;100220.31;;;5.19;100.00
13422;BME280;6782;55.904;13.396;2024-02-26T00:37:18;100232.41;;;5.29;100.00
13422;BME280;6782;55.904;13.396;2024-02-26T00:40:06;100213.56;;;5.00;100.00
13422;BME280;6782;55.904;13.396;2024-02-26T00:42:54;100217.03;;;4.99;100.00
13422;BME280;6782;55.904;13.396;2024-02-26T00:45:41;100223.94;;;5.06;100.00
13422;BME280;6782;55.904;13.396;2024-02-26T00:48:30;100243.03;;;5.14;100.00
13422;BME280;6782;55.904;13.396;2024-02-26T00:51:17;100256.81;;;5.31;100.00
13422;BME280;6782;55.904;13.396;2024-02-26T00:54:05;100265.34;;;5.48;100.00
13422;BME280;6782;55.904;13.396;2024-02-26T00:56:52;100255.91;;;5.34;100.00
13422;BME280;6782;55.904;13.396;2024-02-26T00:59:39;100250.75;;;5.26;100.00
13422;BME280;6782;55.904;13.396;2024-02-26T01:02:27;100244.66;;;5.24;100.00
13422;BME280;6782;55.904;13.396;2024-02-26T01:05:16;100253.28;;;5.35;100.00
13422;BME280;6782;55.904;13.396;2024-02-26T01:08:04;100241.22;;;5.19;100.00
13422;BME280;6782;55.904;13.396;2024-02-26T01:10:51;100216.31;;;4.83;100.00
13422;BME280;6782;55.904;13.396;2024-02-26T01:13:38;100238.00;;;4.93;100.00
13422;BME280;6782;55.904;13.396;2024-02-26T01:16:27;100259.66;;;5.07;100.00
13422;BME280;6782;55.904;13.396;2024-02-26T01:19:15;100257.97;;;4.98;100.00
13422;BME280;6782;55.904;13.396;2024-02-26T01:22:04;100289.00;;;5.36;100.00
13422;BME280;6782;55.904;13.396;2024-02-26T01:24:51;100281.25;;;5.26;100.00
13422;BME280;6782;55.904;13.396;2024-02-26T01:27:38;100293.34;;;5.37;100.00
13422;BME280;6782;55.904;13.396;2024-02-26T01:30:27;100284.66;;;5.32;100.00
13422;BME280;6782;55.904;13.396;2024-02-26T01:33:14;100293.34;;;5.37;100.00
13422;BME280;6782;55.904;13.396;2024-02-26T01:36:01;100291.63;;;5.36;100.00
13422;BME280;6782;55.904;13.396;2024-02-26T01:38:50;100292.53;;;5.31;100.00
13422;BME280;6782;55.904;13.396;2024-02-26T01:41:37;100261.41;;;5.05;100.00
13422;BME280;6782;55.904;13.396;2024-02-26T01:44:26;100264.13;;;4.93;100.00
13422;BME280;6782;55.904;13.396;2024-02-26T01:47:13;100250.31;;;4.79;100.00
13422;BME280;6782;55.904;13.396;2024-02-26T01:50:01;100245.22;;;4.64;100.00
13422;BME280;6782;55.904;13.396;2024-02-26T01:52:50;100260.91;;;4.58;100.00
13422;BME280;6782;55.904;13.396;2024-02-26T01:55:39;100295.53;;;4.84;100.00
13422;BME280;6782;55.904;13.396;2024-02-26T01:58:26;100298.03;;;5.00;100.00
13422;BME280;6782;55.904;13.396;2024-02-26T02:01:17;100292.88;;;4.93;100.00
13422;BME280;6782;55.904;13.396;2024-02-26T02:04:06;100290.34;;;4.81;100.00
13422;BME280;6782;55.904;13.396;2024-02-26T02:06:53;100330.03;;;5.28;100.00
13422;BME280;6782;55.904;13.396;2024-02-26T02:09:41;100321.44;;;5.11;100.00
13422;BME280;6782;55.904;13.396;2024-02-26T02:12:30;100288.75;;;4.65;100.00
13422;BME280;6782;55.904;13.396;2024-02-26T02:15:18;100280.09;;;4.51;100.00
13422;BME280;6782;55.904;13.396;2024-02-26T02:18:06;100315.59;;;4.82;100.00
13422;BME280;6782;55.904;13.396;2024-02-26T02:20:55;100332.06;;;4.93;100.00
13422;BME280;6782;55.904;13.396;2024-02-26T02:23:45;100311.34;;;4.63;100.00
13422;BME280;6782;55.904;13.396;2024-02-26T02:26:34;100338.25;;;4.75;100.00
13422;BME280;6782;55.904;13.396;2024-02-26T02:29:21;100337.34;;;4.81;100.00
13422;BME280;6782;55.904;13.396;2024-02-26T02:32:09;100333.97;;;4.67;100.00
13422;BME280;6782;55.904;13.396;2024-02-26T02:34:57;100340.81;;;4.83;100.00
13422;BME280;6782;55.904;13.396;2024-02-26T02:37:46;100344.25;;;4.88;100.00
13422;BME280;6782;55.904;13.396;2024-02-26T02:40:34;100333.91;;;4.77;100.00
13422;BME280;6782;55.904;13.396;2024-02-26T02:43:23;100359.03;;;4.93;100.00
13422;BME280;6782;55.904;13.396;2024-02-26T02:46:11;100317.50;;;4.53;100.00
13422;BME280;6782;55.904;13.396;2024-02-26T02:48:59;100307.19;;;4.31;100.00
13422;BME280;6782;55.904;13.396;2024-02-26T02:51:46;100314.19;;;4.19;100.00
13422;BME280;6782;55.904;13.396;2024-02-26T02:54:35;100325.50;;;4.25;100.00
13422;BME280;6782;55.904;13.396;2024-02-26T02:57:26;100337.63;;;4.35;100.00
13422;BME280;6782;55.904;13.396;2024-02-26T03:00:14;100327.25;;;4.23;100.00
13422;BME280;6782;55.904;13.396;2024-02-26T03:03:01;100356.66;;;4.62;100.00
13422;BME280;6782;55.904;13.396;2024-02-26T03:05:49;100315.06;;;4.19;100.00
13422;BME280;6782;55.904;13.396;2024-02-26T03:08:37;100349.78;;;4.42;100.00
13422;BME280;6782;55.904;13.396;2024-02-26T03:11:27;100360.97;;;4.60;100.00
13422;BME280;6782;55.904;13.396;2024-02-26T03:14:14;100345.41;;;4.49;100.00
13422;BME280;6782;55.904;13.396;2024-02-26T03:17:01;100332.38;;;4.41;100.00
13422;BME280;6782;55.904;13.396;2024-02-26T03:19:49;100328.88;;;4.42;100.00
13422;BME280;6782;55.904;13.396;2024-02-26T03:22:39;100332.34;;;4.49;100.00
13422;BME280;6782;55.904;13.396;2024-02-26T03:25:26;100332.31;;;4.51;100.00
13422;BME280;6782;55.904;13.396;2024-02-26T03:28:15;100345.38;;;4.54;100.00
13422;BME280;6782;55.904;13.396;2024-02-26T03:31:03;100335.81;;;4.50;100.00
13422;BME280;6782;55.904;13.396;2024-02-26T03:33:50;100325.44;;;4.31;100.00
13422;BME280;6782;55.904;13.396;2024-02-26T03:36:37;100316.84;;;4.11;100.00
13422;BME280;6782;55.904;13.396;2024-02-26T03:39:25;100314.19;;;4.22;100.00
13422;BME280;6782;55.904;13.396;2024-02-26T03:42:12;100322.06;;;4.14;100.00
13422;BME280;6782;55.904;13.396;2024-02-26T03:45:01;100334.25;;;4.15;100.00
13422;BME280;6782;55.904;13.396;2024-02-26T03:47:48;100325.56;;;4.12;100.00
13422;BME280;6782;55.904;13.396;2024-02-26T03:50:35;100332.50;;;4.11;100.00
13422;BME280;6782;55.904;13.396;2024-02-26T03:53:23;100325.56;;;4.10;100.00
13422;BME280;6782;55.904;13.396;2024-02-26T03:56:11;100308.22;;;3.94;100.00
13422;BME280;6782;55.904;13.396;2024-02-26T03:58:59;100301.31;;;3.81;100.00
13422;BME280;6782;55.904;13.396;2024-02-26T04:01:50;100308.28;;;3.79;100.00
13422;BME280;6782;55.904;13.396;2024-02-26T04:04:37;100303.06;;;3.76;100.00
13422;BME280;6782;55.904;13.396;2024-02-26T04:07:25;100294.41;;;3.63;100.00
13422;BME280;6782;55.904;13.396;2024-02-26T04:10:12;100303.06;;;3.82;100.00
13422;BME280;6782;55.904;13.396;2024-02-26T04:13:00;100298.78;;;3.64;100.00
13422;BME280;6782;55.904;13.396;2024-02-26T04:15:49;100275.34;;;3.48;100.00
13422;BME280;6782;55.904;13.396;2024-02-26T04:18:38;100287.47;;;3.52;100.00
13422;BME280;6782;55.904;13.396;2024-02-26T04:21:25;100270.19;;;3.31;100.00
13422;BME280;6782;55.904;13.396;2024-02-26T04:24:13;100260.66;;;3.15;100.00
13422;BME280;6782;55.904;13.396;2024-02-26T04:27:00;100275.38;;;3.33;100.00
13422;BME280;6782;55.904;13.396;2024-02-26T04:29:47;100263.22;;;3.16;100.00
13422;BME280;6782;55.904;13.396;2024-02-26T04:32:34;100260.63;;;3.06;100.00
13422;BME280;6782;55.904;13.396;2024-02-26T04:35:25;100214.63;;;2.37;100.00
13422;BME280;6782;55.904;13.396;2024-02-26T04:38:12;100216.34;;;2.29;100.00
13422;BME280;6782;55.904;13.396;2024-02-26T04:40:59;100236.34;;;2.52;100.00
13422;BME280;6782;55.904;13.396;2024-02-26T04:43:47;100201.59;;;2.10;100.00
13422;BME280;6782;55.904;13.396;2024-02-26T04:46:35;100256.28;;;2.52;100.00
13422;BME280;6782;55.904;13.396;2024-02-26T04:49:23;100256.31;;;2.58;100.00
13422;BME280;6782;55.904;13.396;2024-02-26T04:52:12;100277.13;;;2.67;100.00
13422;BME280;6782;55.904;13.396;2024-02-26T04:54:59;100284.94;;;2.70;100.00
13422;BME280;6782;55.904;13.396;2024-02-26T04:57:49;100278.88;;;2.74;100.00
13422;BME280;6782;55.904;13.396;2024-02-26T05:00:36;100286.66;;;2.70;100.00
13422;BME280;6782;55.904;13.396;2024-02-26T05:03:24;100282.34;;;2.58;100.00
13422;BME280;6782;55.904;13.396;2024-02-26T05:06:11;100276.25;;;2.45;100.00
13422;BME280;6782;55.904;13.396;2024-02-26T05:09:02;100257.13;;;2.22;100.00
13422;BME280;6782;55.904;13.396;2024-02-26T05:11:49;100291.00;;;2.63;100.00
13422;BME280;6782;55.904;13.396;2024-02-26T05:14:39;100280.59;;;2.48;100.00
13422;BME280;6782;55.904;13.396;2024-02-26T05:17:26;100297.97;;;2.69;100.00
13422;BME280;6782;55.904;13.396;2024-02-26T05:20:13;100298.84;;;2.62;100.00
13422;BME280;6782;55.904;13.396;2024-02-26T05:23:01;100297.97;;;2.57;100.00
13422;BME280;6782;55.904;13.396;2024-02-26T05:25:51;100297.06;;;2.50;100.00
13422;BME280;6782;55.904;13.396;2024-02-26T05:28:38;100311.81;;;2.45;100.00
13422;BME280;6782;55.904;13.396;2024-02-26T05:31:25;100301.38;;;2.36;100.00
13422;BME280;6782;55.904;13.396;2024-02-26T05:34:13;100283.06;;;2.03;100.00
13422;BME280;6782;55.904;13.396;2024-02-26T05:37:00;100294.31;;;1.99;100.00
13422;BME280;6782;55.904;13.396;2024-02-26T05:39:47;100283.81;;;1.74;100.00
13422;BME280;6782;55.904;13.396;2024-02-26T05:42:37;100299.44;;;1.80;100.00
13422;BME280;6782;55.904;13.396;2024-02-26T05:45:24;100332.50;;;2.09;100.00
13422;BME280;6782;55.904;13.396;2024-02-26T05:48:11;100315.88;;;1.78;100.00
13422;BME280;6782;55.904;13.396;2024-02-26T05:50:58;100356.81;;;2.17;100.00
13422;BME280;6782;55.904;13.396;2024-02-26T05:53:46;100347.19;;;1.99;100.00
13422;BME280;6782;55.904;13.396;2024-02-26T05:56:39;100347.94;;;1.75;100.00
13422;BME280;6782;55.904;13.396;2024-02-26T05:59:28;100364.44;;;1.79;100.00
13422;BME280;6782;55.904;13.396;2024-02-26T06:02:15;100400.09;;;2.06;100.00
13422;BME280;6782;55.904;13.396;2024-02-26T06:05:02;100405.31;;;2.09;100.00
13422;BME280;6782;55.904;13.396;2024-02-26T06:07:50;100423.63;;;2.28;100.00
13422;BME280;6782;55.904;13.396;2024-02-26T06:10:37;100411.41;;;2.12;100.00
13422;BME280;6782;55.904;13.396;2024-02-26T06:13:25;100373.78;;;1.54;100.00
13422;BME280;6782;55.904;13.396;2024-02-26T06:16:14;100372.78;;;1.36;100.00
13422;BME280;6782;55.904;13.396;2024-02-26T06:19:01;100415.44;;;1.63;100.00
13422;BME280;6782;55.904;13.396;2024-02-26T06:21:49;100436.34;;;1.81;100.00
13422;BME280;6782;55.904;13.396;2024-02-26T06:24:37;100442.47;;;1.86;100.00
13422;BME280;6782;55.904;13.396;2024-02-26T06:27:24;100424.06;;;1.59;100.00
13422;BME280;6782;55.904;13.396;2024-02-26T06:30:12;100421.34;;;1.43;100.00
13422;BME280;6782;55.904;13.396;2024-02-26T06:33:07;100422.06;;;1.25;100.00
13422;BME280;6782;55.904;13.396;2024-02-26T06:35:56;100431.44;;;1.11;100.00
13422;BME280;6782;55.904;13.396;2024-02-26T06:38:43;100447.84;;;1.07;100.00
13422;BME280;6782;55.904;13.396;2024-02-26T06:41:31;100447.69;;;0.92;100.00
13422;BME280;6782;55.904;13.396;2024-02-26T06:44:18;100465.00;;;0.91;100.00
13422;BME280;6782;55.904;13.396;2024-02-26T06:47:06;100485.88;;;1.02;100.00
13422;BME280;6782;55.904;13.396;2024-02-26T06:49:55;100520.78;;;1.31;100.00
13422;BME280;6782;55.904;13.396;2024-02-26T06:52:44;100515.47;;;1.19;100.00
13422;BME280;6782;55.904;13.396;2024-02-26T06:55:32;100550.47;;;1.54;100.00
13422;BME280;6782;55.904;13.396;2024-02-26T06:58:19;100561.78;;;1.58;100.00
13422;BME280;6782;55.904;13.396;2024-02-26T07:01:06;100551.97;;;1.31;100.00
13422;BME280;6782;55.904;13.396;2024-02-26T07:03:54;100580.03;;;1.65;100.00
13422;BME280;6782;55.904;13.396;2024-02-26T07:06:43;100584.25;;;1.53;100.00
13422;BME280;6782;55.904;13.396;2024-02-26T07:09:32;100617.47;;;1.79;100.00
13422;BME280;6782;55.904;13.396;2024-02-26T07:12:19;100638.41;;;1.96;100.00
13422;BME280;6782;55.904;13.396;2024-02-26T07:15:08;100648.91;;;2.08;100.00
13422;BME280;6782;55.904;13.396;2024-02-26T07:17:56;100633.13;;;1.90;100.00
13422;BME280;6782;55.904;13.396;2024-02-26T07:20:48;100643.72;;;2.05;100.00
13422;BME280;6782;55.904;13.396;2024-02-26T07:23:37;100684.84;;;2.50;100.00
13422;BME280;6782;55.904;13.396;2024-02-26T07:26:25;100694.50;;;2.63;100.00
13422;BME280;6782;55.904;13.396;2024-02-26T07:29:12;100707.66;;;2.81;100.00
13422;BME280;6782;55.904;13.396;2024-02-26T07:32:00;100685.84;;;2.67;100.00
13422;BME280;6782;55.904;13.396;2024-02-26T07:34:47;100683.09;;;2.46;100.00
13422;BME280;6782;55.904;13.396;2024-02-26T07:37:34;100668.19;;;2.31;100.00
13422;BME280;6782;55.904;13.396;2024-02-26T07:40:23;100677.88;;;2.46;100.00
13422;BME280;6782;55.904;13.396;2024-02-26T07:43:11;100683.13;;;2.52;100.00
13422;BME280;6782;55.904;13.396;2024-02-26T07:45:58;100691.84;;;2.54;100.00
13422;BME280;6782;55.904;13.396;2024-02-26T07:48:46;100684.75;;;2.38;100.00
13422;BME280;6782;55.904;13.396;2024-02-26T07:51:33;100696.13;;;2.49;100.00
13422;BME280;6782;55.904;13.396;2024-02-26T07:54:20;100714.44;;;2.61;100.00
13422;BME280;6782;55.904;13.396;2024-02-26T07:57:09;100713.56;;;2.61;100.00
13422;BME280;6782;55.904;13.396;2024-02-26T07:59:57;100740.66;;;2.82;100.00
13422;BME280;6782;55.904;13.396;2024-02-26T08:02:44;100770.47;;;3.27;100.00
13422;BME280;6782;55.904;13.396;2024-02-26T08:05:32;100740.78;;;3.03;100.00
13422;BME280;6782;55.904;13.396;2024-02-26T08:08:20;100740.81;;;3.06;100.00
13422;BME280;6782;55.904;13.396;2024-02-26T08:11:07;100736.38;;;2.92;100.00
13422;BME280;6782;55.904;13.396;2024-02-26T08:13:56;100763.50;;;3.20;100.00
13422;BME280;6782;55.904;13.396;2024-02-26T08:16:44;100770.53;;;3.33;100.00
13422;BME280;6782;55.904;13.396;2024-02-26T08:19:32;100792.41;;;3.60;100.00
13422;BME280;6782;55.904;13.396;2024-02-26T08:22:21;100774.91;;;3.35;100.00
13422;BME280;6782;55.904;13.396;2024-02-26T08:25:09;100790.56;;;3.40;100.00
13422;BME280;6782;55.904;13.396;2024-02-26T08:27:57;100795.84;;;3.49;100.00
13422;BME280;6782;55.904;13.396;2024-02-26T08:30:46;100819.44;;;3.76;100.00
13422;BME280;6782;55.904;13.396;2024-02-26T08:33:33;100838.63;;;3.84;100.00
13422;BME280;6782;55.904;13.396;2024-02-26T08:36:21;100844.81;;;4.03;100.00
13422;BME280;6782;55.904;13.396;2024-02-26T08:39:08;100823.84;;;3.82;100.00
13422;BME280;6782;55.904;13.396;2024-02-26T08:41:56;100822.03;;;3.71;100.00
13422;BME280;6782;55.904;13.396;2024-02-26T08:44:43;100842.16;;;3.92;100.00
13422;BME280;6782;55.904;13.396;2024-02-26T08:47:33;100881.47;;;4.33;100.00
13422;BME280;6782;55.904;13.396;2024-02-26T08:50:20;100871.91;;;4.39;100.00
13422;BME280;6782;55.904;13.396;2024-02-26T08:53:08;100885.03;;;4.55;100.00
13422;BME280;6782;55.904;13.396;2024-02-26T08:55:55;100888.56;;;4.64;100.00
13422;BME280;6782;55.904;13.396;2024-02-26T08:58:42;100911.28;;;5.00;100.00
13422;BME280;6782;55.904;13.396;2024-02-26T09:01:31;100925.28;;;5.26;100.00
13422;BME280;6782;55.904;13.396;2024-02-26T09:04:20;100892.97;;;4.97;100.00
13422;BME280;6782;55.904;13.396;2024-02-26T09:07:08;100904.31;;;5.03;100.00
13422;BME280;6782;55.904;13.396;2024-02-26T09:09:55;100937.47;;;5.45;100.00
13422;BME280;6782;55.904;13.396;2024-02-26T09:12:42;100951.44;;;5.68;100.00
13422;BME280;6782;55.904;13.396;2024-02-26T09:15:30;100915.66;;;5.42;100.00
13422;BME280;6782;55.904;13.396;2024-02-26T09:18:17;100900.84;;;5.27;100.00
13422;BME280;6782;55.904;13.396;2024-02-26T09:21:07;100899.97;;;5.34;100.00
13422;BME280;6782;55.904;13.396;2024-02-26T09:23:54;100893.00;;;5.30;100.00
13422;BME280;6782;55.904;13.396;2024-02-26T09:26:41;100905.22;;;5.55;100.00
13422;BME280;6782;55.904;13.396;2024-02-26T09:29:29;100889.53;;;5.43;100.00
13422;BME280;6782;55.904;13.396;2024-02-26T09:32:16;100889.53;;;5.43;100.00
13422;BME280;6782;55.904;13.396;2024-02-26T09:35:04;100866.84;;;5.24;100.00
13422;BME280;6782;55.904;13.396;2024-02-26T09:37:53;100854.66;;;5.11;100.00
13422;BME280;6782;55.904;13.396;2024-02-26T09:40:41;100878.19;;;5.28;100.00
13422;BME280;6782;55.904;13.396;2024-02-26T09:43:34;100880.78;;;5.29;100.00
13422;BME280;6782;55.904;13.396;2024-02-26T09:46:22;100913.91;;;5.71;100.00
13422;BME280;6782;55.904;13.396;2024-02-26T09:49:11;100901.72;;;5.56;100.00
13422;BME280;6782;55.904;13.396;2024-02-26T09:51:59;100918.28;;;5.84;100.00
13422;BME280;6782;55.904;13.396;2024-02-26T09:54:49;100917.44;;;5.87;100.00
13422;BME280;6782;55.904;13.396;2024-02-26T09:57:37;100908.69;;;5.82;100.00
13422;BME280;6782;55.904;13.396;2024-02-26T10:00:26;100912.19;;;5.88;100.00
13422;BME280;6782;55.904;13.396;2024-02-26T10:03:20;100924.38;;;6.00;100.00
13422;BME280;6782;55.904;13.396;2024-02-26T10:06:08;100939.09;;;6.40;100.00
13422;BME280;6782;55.904;13.396;2024-02-26T10:08:56;100946.03;;;6.61;100.00
13422;BME280;6782;55.904;13.396;2024-02-26T10:11:47;100938.13;;;6.68;100.00
13422;BME280;6782;55.904;13.396;2024-02-26T10:14:36;100920.72;;;6.54;100.00
13422;BME280;6782;55.904;13.396;2024-02-26T10:17:23;100898.03;;;6.45;100.00
13422;BME280;6782;55.904;13.396;2024-02-26T10:20:12;100931.00;;;6.91;100.00
13422;BME280;6782;55.904;13.396;2024-02-26T10:23:02;100920.41;;;7.10;100.00
13422;BME280;6782;55.904;13.396;2024-02-26T10:25:53;100941.16;;;7.46;100.00
13422;BME280;6782;55.904;13.396;2024-02-26T10:28:44;100914.19;;;7.24;100.00
13422;BME280;6782;55.904;13.396;2024-02-26T10:31:32;100927.91;;;7.61;100.00
13422;BME280;6782;55.904;13.396;2024-02-26T10:34:20;100902.53;;;7.60;100.00
13422;BME280;6782;55.904;13.396;2024-02-26T10:37:07;100871.28;;;7.36;100.00
13422;BME280;6782;55.904;13.396;2024-02-26T10:39:56;100851.03;;;7.48;100.00
13422;BME280;6782;55.904;13.396;2024-02-26T10:42:43;100829.28;;;7.36;100.00
13422;BME280;6782;55.904;13.396;2024-02-26T10:45:33;100837.78;;;7.62;100.00
13422;BME280;6782;55.904;13.396;2024-02-26T10:48:21;100830.63;;;7.76;100.00
13422;BME280;6782;55.904;13.396;2024-02-26T10:51:09;100811.44;;;7.71;100.00
13422;BME280;6782;55.904;13.396;2024-02-26T10:53:59;100773.16;;;7.52;100.00
13422;BME280;6782;55.904;13.396;2024-02-26T10:56:48;100764.31;;;7.62;100.00
13422;BME280;6782;55.904;13.396;2024-02-26T10:59:38;100722.44;;;7.50;100.00
13422;BME280;6782;55.904;13.396;2024-02-26T11:02:27;100722.16;;;7.74;100.00
13422;BME280;6782;55.904;13.396;2024-02-26T11:05:15;100737.22;;;8.27;100.00
13422;BME280;6782;55.904;13.396;2024-02-26T11:08:05;100709.94;;;8.39;100.00
13422;BME280;6782;55.904;13.396;2024-02-26T11:10:53;100696.72;;;8.45;100.00
13422;BME280;6782;55.904;13.396;2024-02-26T11:13:42;100666.59;;;8.64;100.00
13422;BME280;6782;55.904;13.396;2024-02-26T11:16:31;100643.75;;;8.66;100.00
13422;BME280;6782;55.904;13.396;2024-02-26T11:19:24;100589.78;;;8.47;100.00
13422;BME280;6782;55.904;13.396;2024-02-26T11:22:12;100579.00;;;8.62;100.00
13422;BME280;6782;55.904;13.396;2024-02-26T11:24:59;100517.66;;;8.12;100.00
13422;BME280;6782;55.904;13.396;2024-02-26T11:27:50;100524.81;;;8.55;100.00
13422;BME280;6782;55.904;13.396;2024-02-26T11:30:42;100490.63;;;8.56;100.00
13422;BME280;6782;55.904;13.396;2024-02-26T11:33:31;100496.03;;;8.93;100.00
13422;BME280;6782;55.904;13.396;2024-02-26T11:36:21;100447.41;;;8.69;100.00
13422;BME280;6782;55.904;13.396;2024-02-26T11:39:11;100407.13;;;8.69;100.00
13422;BME280;6782;55.904;13.396;2024-02-26T11:42:05;100412.25;;;8.75;100.00
13422;BME280;6782;55.904;13.396;2024-02-26T11:44:54;100382.22;;;8.85;100.00
13422;BME280;6782;55.904;13.396;2024-02-26T11:47:55;100384.03;;;9.21;100.00
13422;BME280;6782;55.904;13.396;2024-02-26T11:50:47;100344.94;;;9.06;100.00
13422;BME280;6782;55.904;13.396;2024-02-26T11:53:45;100286.06;;;8.75;100.00
13422;BME280;6782;55.904;13.396;2024-02-26T11:56:34;100275.78;;;9.01;100.00
13422;BME280;6782;55.904;13.396;2024-02-26T11:59:37;100264.22;;;9.08;100.00
13422;BME280;6782;55.904;13.396;2024-02-26T12:02:43;100233.94;;;8.92;100.00
13422;BME280;6782;55.904;13.396;2024-02-26T12:05:32;100206.22;;;8.79;100.00
13422;BME280;6782;55.904;13.396;2024-02-26T12:08:21;100230.38;;;9.28;100.00
13422;BME280;6782;55.904;13.396;2024-02-26T12:11:16;100210.78;;;9.38;100.00
13422;BME280;6782;55.904;13.396;2024-02-26T12:14:03;100177.00;;;9.23;100.00
13422;BME280;6782;55.904;13.396;2024-02-26T12:16:52;100122.81;;;8.84;100.00
13422;BME280;6782;55.904;13.396;2024-02-26T12:19:39;100131.28;;;8.95;100.00
13422;BME280;6782;55.904;13.396;2024-02-26T12:22:27;100118.88;;;9.00;100.00
13422;BME280;6782;55.904;13.396;2024-02-26T12:25:15;100118.53;;;9.12;100.00
13422;BME280;6782;55.904;13.396;2024-02-26T12:28:05;100097.78;;;9.03;100.00
13422;BME280;6782;55.904;13.396;2024-02-26T12:30:53;100116.13;;;9.35;100.00
13422;BME280;6782;55.904;13.396;2024-02-26T12:33:41;100062.78;;;9.01;100.00
13422;BME280;6782;55.904;13.396;2024-02-26T12:36:28;100065.13;;;9.10;100.00
13422;BME280;6782;55.904;13.396;2024-02-26T12:39:16;100051.31;;;9.02;100.00
13422;BME280;6782;55.904;13.396;2024-02-26T12:42:06;100019.31;;;8.88;100.00
13422;BME280;6782;55.904;13.396;2024-02-26T12:44:55;100067.31;;;9.25;100.00
13422;BME280;6782;55.904;13.396;2024-02-26T12:47:46;100077.16;;;9.50;100.00
13422;BME280;6782;55.904;13.396;2024-02-26T12:50:35;100043.56;;;9.58;100.00
13422;BME280;6782;55.904;13.396;2024-02-26T12:53:22;99965.81;;;9.18;100.00
13422;BME280;6782;55.904;13.396;2024-02-26T12:56:11;99986.56;;;9.27;100.00
13422;BME280;6782;55.904;13.396;2024-02-26T12:58:59;99990.31;;;9.48;100.00
13422;BME280;6782;55.904;13.396;2024-02-26T13:01:49;99925.72;;;9.38;100.00
13422;BME280;6782;55.904;13.396;2024-02-26T13:04:38;99888.03;;;9.37;100.00
13422;BME280;6782;55.904;13.396;2024-02-26T13:07:26;99816.78;;;9.17;100.00
13422;BME280;6782;55.904;13.396;2024-02-26T13:10:14;99800.47;;;9.32;100.00
13422;BME280;6782;55.904;13.396;2024-02-26T13:13:04;99832.06;;;9.59;100.00
13422;BME280;6782;55.904;13.396;2024-02-26T13:16:01;99727.44;;;9.14;100.00
13422;BME280;6782;55.904;13.396;2024-02-26T13:18:50;99748.09;;;9.26;100.00
13422;BME280;6782;55.904;13.396;2024-02-26T13:21:38;99711.03;;;9.32;100.00
13422;BME280;6782;55.904;13.396;2024-02-26T13:24:25;99640.63;;;9.14;100.00
13422;BME280;6782;55.904;13.396;2024-02-26T13:27:21;99639.75;;;9.15;100.00
13422;BME280;6782;55.904;13.396;2024-02-26T13:30:10;99556.88;;;8.79;100.00
13422;BME280;6782;55.904;13.396;2024-02-26T13:33:07;99615.44;;;9.09;100.00
13422;BME280;6782;55.904;13.396;2024-02-26T13:35:58;99634.91;;;9.28;100.00
13422;BME280;6782;55.904;13.396;2024-02-26T13:38:51;99546.38;;;9.04;100.00
13422;BME280;6782;55.904;13.396;2024-02-26T13:41:40;99527.16;;;9.02;100.00
13422;BME280;6782;55.904;13.396;2024-02-26T13:44:29;99523.81;;;9.21;100.00
13422;BME280;6782;55.904;13.396;2024-02-26T13:47:17;99523.50;;;9.52;100.00
13422;BME280;6782;55.904;13.396;2024-02-26T13:50:05;99470.22;;;9.45;100.00
13422;BME280;6782;55.904;13.396;2024-02-26T13:52:54;99412.53;;;9.41;100.00
13422;BME280;6782;55.904;13.396;2024-02-26T13:55:42;99472.69;;;9.72;100.00
13422;BME280;6782;55.904;13.396;2024-02-26T13:58:29;99448.69;;;9.79;100.00
13422;BME280;6782;55.904;13.396;2024-02-26T14:01:16;99228.25;;;9.02;100.00
13422;BME280;6782;55.904;13.396;2024-02-26T14:04:04;99261.34;;;9.08;100.00
13422;BME280;6782;55.904;13.396;2024-02-26T14:06:52;99247.09;;;9.13;100.00
13422;BME280;6782;55.904;13.396;2024-02-26T14:09:41;99236.91;;;9.26;100.00
13422;BME280;6782;55.904;13.396;2024-02-26T14:12:28;99165.69;;;9.10;100.00
13422;BME280;6782;55.904;13.396;2024-02-26T14:15:15;99125.06;;;8.97;100.00
13422;BME280;6782;55.904;13.396;2024-02-26T14:18:02;99118.59;;;8.84;100.00
13422;BME280;6782;55.904;13.396;2024-02-26T14:20:50;99209.25;;;8.74;100.00
13422;BME280;6782;55.904;13.396;2024-02-26T14:23:37;99334.25;;;8.81;100.00
13422;BME280;6782;55.904;13.396;2024-02-26T14:26:25;99430.97;;;8.73;100.00
13422;BME280;6782;55.904;13.396;2024-02-26T14:29:12;99463.28;;;8.52;100.00
13422;BME280;6782;55.904;13.396;2024-02-26T14:32:00;99528.72;;;8.33;100.00
13422;BME280;6782;55.904;13.396;2024-02-26T14:34:47;99598.81;;;8.03;100.00
13422;BME280;6782;55.904;13.396;2024-02-26T14:37:35;99824.84;;;8.56;100.00
13422;BME280;6782;55.904;13.396;2024-02-26T14:40:23;99793.63;;;8.16;100.00